sensor_id;sensor_type;location;lat;lon;timestamp;pressure;altitude;pressure_sealevel;temperature;humidity
70506;BME280;58032;49.820;6.274;2023-04-10T00:00:02;98142.94;;;2.21;100.00
70506;BME280;58032;49.820;6.274;2023-04-10T00:02:30;98144.63;;;2.44;100.00
70506;BME280;58032;49.820;6.274;2023-04-10T00:04:57;98140.72;;;2.59;100.00
70506;BME280;58032;49.820;6.274;2023-04-10T00:07:24;98125.66;;;2.75;100.00
70506;BME280;58032;49.820;6.274;2023-04-10T00:09:52;98127.66;;;2.85;100.00
70506;BME280;58032;49.820;6.274;2023-04-10T00:12:19;98121.28;;;2.81;100.00
70506;BME280;58032;49.820;6.274;2023-04-10T00:14:46;98124.88;;;2.85;100.00
70506;BME280;58032;49.820;6.274;2023-04-10T00:17:13;98122.50;;;2.87;100.00
70506;BME280;58032;49.820;6.274;2023-04-10T00:19:40;98124.50;;;2.87;100.00
70506;BME280;58032;49.820;6.274;2023-04-10T00:22:06;98119.25;;;2.60;100.00
70506;BME280;58032;49.820;6.274;2023-04-10T00:24:33;98127.09;;;2.32;100.00
70506;BME280;58032;49.820;6.274;2023-04-10T00:27:00;98123.16;;;2.44;100.00
70506;BME280;58032;49.820;6.274;2023-04-10T00:29:27;98121.56;;;2.40;100.00
70506;BME280;58032;49.820;6.274;2023-04-10T00:31:54;98123.88;;;2.23;100.00
70506;BME280;58032;49.820;6.274;2023-04-10T00:34:21;98123.13;;;2.30;100.00
70506;BME280;58032;49.820;6.274;2023-04-10T00:36:48;98125.53;;;2.38;100.00
70506;BME280;58032;49.820;6.274;2023-04-10T00:39:15;98126.38;;;2.53;100.00
70506;BME280;58032;49.820;6.274;2023-04-10T00:41:42;98114.88;;;2.59;100.00
70506;BME280;58032;49.820;6.274;2023-04-10T00:44:09;98121.22;;;2.45;100.00
70506;BME280;58032;49.820;6.274;2023-04-10T00:46:37;98112.44;;;2.35;100.00
70506;BME280;58032;49.820;6.274;2023-04-10T00:49:05;98119.97;;;2.38;100.00
70506;BME280;58032;49.820;6.274;2023-04-10T00:51:32;98117.56;;;2.30;100.00
70506;BME280;58032;49.820;6.274;2023-04-10T00:53:59;98111.50;;;2.06;100.00
70506;BME280;58032;49.820;6.274;2023-04-10T00:56:29;98110.22;;;1.85;100.00
70506;BME280;58032;49.820;6.274;2023-04-10T00:59:00;98121.34;;;1.89;100.00
70506;BME280;58032;49.820;6.274;2023-04-10T01:01:28;98116.59;;;1.97;100.00
70506;BME280;58032;49.820;6.274;2023-04-10T01:03:56;98106.34;;;2.04;100.00
70506;BME280;58032;49.820;6.274;2023-04-10T01:06:33;98103.25;;;2.31;100.00
70506;BME280;58032;49.820;6.274;2023-04-10T01:09:16;98099.75;;;2.45;100.00
70506;BME280;58032;49.820;6.274;2023-04-10T01:11:52;98091.00;;;2.43;100.00
70506;BME280;58032;49.820;6.274;2023-04-10T01:17:24;98079.56;;;2.77;100.00
70506;BME280;58032;49.820;6.274;2023-04-10T01:20:09;98072.44;;;2.91;100.00
70506;BME280;58032;49.820;6.274;2023-04-10T01:22:51;98065.69;;;2.95;100.00
70506;BME280;58032;49.820;6.274;2023-04-10T01:25:44;98061.72;;;2.96;100.00
70506;BME280;58032;49.820;6.274;2023-04-10T01:30:51;98056.88;;;2.53;100.00
70506;BME280;58032;49.820;6.274;2023-04-10T01:33:21;98052.44;;;2.20;100.00
70506;BME280;58032;49.820;6.274;2023-04-10T01:35:52;98048.44;;;2.14;100.00
70506;BME280;58032;49.820;6.274;2023-04-10T01:38:23;98055.50;;;1.93;100.00
70506;BME280;58032;49.820;6.274;2023-04-10T01:40:53;98053.91;;;1.96;100.00
70506;BME280;58032;49.820;6.274;2023-04-10T01:43:28;98055.13;;;1.98;100.00
70506;BME280;58032;49.820;6.274;2023-04-10T01:45:57;98047.59;;;1.99;100.00
70506;BME280;58032;49.820;6.274;2023-04-10T01:48:25;98051.59;;;2.09;100.00
70506;BME280;58032;49.820;6.274;2023-04-10T01:50:53;98039.28;;;2.10;100.00
70506;BME280;58032;49.820;6.274;2023-04-10T01:53:22;98042.03;;;2.02;100.00
70506;BME280;58032;49.820;6.274;2023-04-10T01:55:49;98050.34;;;1.95;100.00
70506;BME280;58032;49.820;6.274;2023-04-10T01:58:18;98048.75;;;1.94;100.00
70506;BME280;58032;49.820;6.274;2023-04-10T02:00:45;98045.22;;;1.97;100.00
70506;BME280;58032;49.820;6.274;2023-04-10T02:03:13;98036.13;;;2.11;100.00
70506;BME280;58032;49.820;6.274;2023-04-10T02:05:59;98031.00;;;2.24;100.00
70506;BME280;58032;49.820;6.274;2023-04-10T02:08:36;98038.16;;;2.25;100.00
70506;BME280;58032;49.820;6.274;2023-04-10T02:13:34;98043.41;;;1.53;100.00
70506;BME280;58032;49.820;6.274;2023-04-10T02:16:06;98045.69;;;1.40;100.00
70506;BME280;58032;49.820;6.274;2023-04-10T02:18:35;98051.22;;;1.36;100.00
70506;BME280;58032;49.820;6.274;2023-04-10T02:21:03;98048.84;;;1.38;100.00
70506;BME280;58032;49.820;6.274;2023-04-10T02:23:30;98048.88;;;1.46;100.00
70506;BME280;58032;49.820;6.274;2023-04-10T02:25:57;98052.09;;;1.51;100.00
70506;BME280;58032;49.820;6.274;2023-04-10T02:28:24;98053.69;;;1.52;100.00
70506;BME280;58032;49.820;6.274;2023-04-10T02:30:51;98051.34;;;1.58;100.00
70506;BME280;58032;49.820;6.274;2023-04-10T02:33:18;98052.56;;;1.64;100.00
70506;BME280;58032;49.820;6.274;2023-04-10T02:35:45;98049.03;;;1.67;100.00
70506;BME280;58032;49.820;6.274;2023-04-10T02:38:12;98047.44;;;1.66;100.00
70506;BME280;58032;49.820;6.274;2023-04-10T02:40:39;98045.00;;;1.61;100.00
70506;BME280;58032;49.820;6.274;2023-04-10T02:43:16;98044.28;;;1.71;100.00
70506;BME280;58032;49.820;6.274;2023-04-10T02:45:43;98048.28;;;1.81;100.00
70506;BME280;58032;49.820;6.274;2023-04-10T02:48:13;98043.59;;;1.93;100.00
70506;BME280;58032;49.820;6.274;2023-04-10T02:50:41;98046.75;;;1.84;100.00
70506;BME280;58032;49.820;6.274;2023-04-10T02:53:15;98044.16;;;1.50;100.00
70506;BME280;58032;49.820;6.274;2023-04-10T02:55:42;98052.06;;;1.48;100.00
70506;BME280;58032;49.820;6.274;2023-04-10T02:58:09;98045.44;;;1.67;100.00
70506;BME280;58032;49.820;6.274;2023-04-10T03:00:38;98043.91;;;1.80;100.00
70506;BME280;58032;49.820;6.274;2023-04-10T03:03:28;98033.16;;;1.64;100.00
70506;BME280;58032;49.820;6.274;2023-04-10T03:05:55;98034.16;;;1.34;100.00
70506;BME280;58032;49.820;6.274;2023-04-10T03:08:27;98032.09;;;1.24;100.00
70506;BME280;58032;49.820;6.274;2023-04-10T03:10:55;98026.94;;;1.22;100.00
70506;BME280;58032;49.820;6.274;2023-04-10T03:13:22;98016.63;;;1.23;100.00
70506;BME280;58032;49.820;6.274;2023-04-10T03:15:49;98019.81;;;1.21;100.00
70506;BME280;58032;49.820;6.274;2023-04-10T03:18:17;98024.63;;;1.32;100.00
70506;BME280;58032;49.820;6.274;2023-04-10T03:20:45;98015.19;;;1.44;100.00
70506;BME280;58032;49.820;6.274;2023-04-10T03:23:12;98024.19;;;1.26;100.00
70506;BME280;58032;49.820;6.274;2023-04-10T03:25:39;98010.44;;;0.88;100.00
70506;BME280;58032;49.820;6.274;2023-04-10T03:28:07;98010.88;;;0.94;100.00
70506;BME280;58032;49.820;6.274;2023-04-10T03:30:34;98010.59;;;1.06;100.00
70506;BME280;58032;49.820;6.274;2023-04-10T03:33:02;98003.13;;;1.18;100.00
70506;BME280;58032;49.820;6.274;2023-04-10T03:35:29;98011.41;;;1.10;100.00
70506;BME280;58032;49.820;6.274;2023-04-10T03:37:56;98004.69;;;1.12;100.00
70506;BME280;58032;49.820;6.274;2023-04-10T03:40:23;98008.28;;;1.19;100.00
70506;BME280;58032;49.820;6.274;2023-04-10T03:42:50;98002.38;;;1.21;100.00
70506;BME280;58032;49.820;6.274;2023-04-10T03:45:17;97993.53;;;1.04;100.00
70506;BME280;58032;49.820;6.274;2023-04-10T03:47:44;97997.00;;;0.90;100.00
70506;BME280;58032;49.820;6.274;2023-04-10T03:50:14;97993.94;;;1.03;100.00
70506;BME280;58032;49.820;6.274;2023-04-10T03:52:48;97998.00;;;1.20;100.00
70506;BME280;58032;49.820;6.274;2023-04-10T03:55:20;98002.75;;;1.19;100.00
70506;BME280;58032;49.820;6.274;2023-04-10T03:57:49;98003.75;;;0.93;100.00
70506;BME280;58032;49.820;6.274;2023-04-10T04:00:19;98000.28;;;1.03;100.00
70506;BME280;58032;49.820;6.274;2023-04-10T04:02:47;97999.13;;;1.12;100.00
70506;BME280;58032;49.820;6.274;2023-04-10T04:05:36;97991.91;;;0.96;100.00
70506;BME280;58032;49.820;6.274;2023-04-10T04:08:22;97988.34;;;0.96;100.00
70506;BME280;58032;49.820;6.274;2023-04-10T04:11:18;97988.50;;;1.17;100.00
70506;BME280;58032;49.820;6.274;2023-04-10T04:13:51;97988.56;;;1.32;100.00
70506;BME280;58032;49.820;6.274;2023-04-10T04:16:37;97985.75;;;1.24;100.00
70506;BME280;58032;49.820;6.274;2023-04-10T04:19:33;97997.78;;;0.87;100.00
70506;BME280;58032;49.820;6.274;2023-04-10T04:22:23;97997.63;;;0.69;100.00
70506;BME280;58032;49.820;6.274;2023-04-10T04:25:09;97994.47;;;0.71;100.00
70506;BME280;58032;49.820;6.274;2023-04-10T04:27:56;97998.50;;;0.81;100.00
70506;BME280;58032;49.820;6.274;2023-04-10T04:30:32;98008.44;;;0.82;100.00
70506;BME280;58032;49.820;6.274;2023-04-10T04:33:12;98001.59;;;0.68;100.00
70506;BME280;58032;49.820;6.274;2023-04-10T04:36:08;98015.34;;;0.57;100.00
70506;BME280;58032;49.820;6.274;2023-04-10T04:38:55;98013.06;;;0.70;100.00
70506;BME280;58032;49.820;6.274;2023-04-10T04:41:48;98011.19;;;0.82;100.00
70506;BME280;58032;49.820;6.274;2023-04-10T04:44:41;98010.91;;;0.98;100.00
70506;BME280;58032;49.820;6.274;2023-04-10T04:47:17;98011.75;;;1.02;100.00
70506;BME280;58032;49.820;6.274;2023-04-10T04:50:09;98009.28;;;0.93;100.00
70506;BME280;58032;49.820;6.274;2023-04-10T04:53:01;98005.50;;;0.63;100.00
70506;BME280;58032;49.820;6.274;2023-04-10T04:55:51;98013.69;;;0.49;100.00
70506;BME280;58032;49.820;6.274;2023-04-10T04:58:36;98011.75;;;0.53;100.00
70506;BME280;58032;49.820;6.274;2023-04-10T05:01:30;98018.16;;;0.61;100.00
70506;BME280;58032;49.820;6.274;2023-04-10T05:04:11;98009.47;;;0.62;100.00
70506;BME280;58032;49.820;6.274;2023-04-10T05:06:57;98012.63;;;0.61;100.00
70506;BME280;58032;49.820;6.274;2023-04-10T05:09:51;98015.72;;;0.56;100.00
70506;BME280;58032;49.820;6.274;2023-04-10T05:12:37;98007.03;;;0.57;100.00
70506;BME280;58032;49.820;6.274;2023-04-10T05:15:22;98008.34;;;0.71;100.00
70506;BME280;58032;49.820;6.274;2023-04-10T05:18:11;98005.34;;;0.94;100.00
70506;BME280;58032;49.820;6.274;2023-04-10T05:20:54;98001.19;;;1.18;100.00
70506;BME280;58032;49.820;6.274;2023-04-10T05:23:50;97998.53;;;1.44;100.00
70506;BME280;58032;49.820;6.274;2023-04-10T05:26:26;98003.75;;;1.56;100.00
70506;BME280;58032;49.820;6.274;2023-04-10T05:29:06;98003.72;;;1.49;100.00
70506;BME280;58032;49.820;6.274;2023-04-10T05:32:12;98002.72;;;1.16;100.00
70506;BME280;58032;49.820;6.274;2023-04-10T05:35:08;98000.38;;;1.18;100.00
70506;BME280;58032;49.820;6.274;2023-04-10T05:37:56;98007.72;;;1.55;100.00
70506;BME280;58032;49.820;6.274;2023-04-10T05:41:02;98009.16;;;2.19;100.00
70506;BME280;58032;49.820;6.274;2023-04-10T05:43:37;98009.59;;;2.35;100.00
70506;BME280;58032;49.820;6.274;2023-04-10T05:46:23;98010.03;;;2.41;100.00
70506;BME280;58032;49.820;6.274;2023-04-10T05:49:03;98009.22;;;2.62;100.00
70506;BME280;58032;49.820;6.274;2023-04-10T05:52:00;98006.47;;;3.13;100.00
70506;BME280;58032;49.820;6.274;2023-04-10T05:54:44;98004.06;;;3.15;100.00
70506;BME280;58032;49.820;6.274;2023-04-10T05:57:29;98007.28;;;2.99;100.00
70506;BME280;58032;49.820;6.274;2023-04-10T06:00:21;98003.28;;;3.07;100.00
70506;BME280;58032;49.820;6.274;2023-04-10T06:03:23;97997.63;;;3.54;100.00
70506;BME280;58032;49.820;6.274;2023-04-10T06:05:55;98004.06;;;3.08;100.00
70506;BME280;58032;49.820;6.274;2023-04-10T06:08:23;98000.88;;;3.35;100.00
70506;BME280;58032;49.820;6.274;2023-04-10T06:10:50;97998.44;;;3.58;100.00
70506;BME280;58032;49.820;6.274;2023-04-10T06:13:17;98003.09;;;3.90;100.00
70506;BME280;58032;49.820;6.274;2023-04-10T06:15:44;97988.78;;;3.88;100.00
70506;BME280;58032;49.820;6.274;2023-04-10T06:18:12;97996.94;;;4.24;100.00
70506;BME280;58032;49.820;6.274;2023-04-10T06:20:39;97997.97;;;4.52;100.00
70506;BME280;58032;49.820;6.274;2023-04-10T06:23:06;97995.78;;;4.82;100.00
70506;BME280;58032;49.820;6.274;2023-04-10T06:25:33;97995.81;;;4.78;100.00
70506;BME280;58032;49.820;6.274;2023-04-10T06:28:00;98001.41;;;4.74;100.00
70506;BME280;58032;49.820;6.274;2023-04-10T06:30:26;97987.41;;;4.82;100.00
70506;BME280;58032;49.820;6.274;2023-04-10T06:32:54;97977.09;;;4.79;100.00
70506;BME280;58032;49.820;6.274;2023-04-10T06:35:21;97976.91;;;5.00;100.00
70506;BME280;58032;49.820;6.274;2023-04-10T06:37:48;97976.53;;;5.36;100.00
70506;BME280;58032;49.820;6.274;2023-04-10T06:40:15;97969.59;;;5.14;100.00
70506;BME280;58032;49.820;6.274;2023-04-10T06:42:42;97970.72;;;5.58;100.00
70506;BME280;58032;49.820;6.274;2023-04-10T06:45:17;97975.56;;;5.54;100.00
70506;BME280;58032;49.820;6.274;2023-04-10T06:47:44;97970.53;;;5.38;100.00
70506;BME280;58032;49.820;6.274;2023-04-10T06:50:11;97971.75;;;5.37;100.00
70506;BME280;58032;49.820;6.274;2023-04-10T06:52:38;97974.63;;;5.64;100.00
70506;BME280;58032;49.820;6.274;2023-04-10T06:55:05;97977.00;;;5.31;100.00
70506;BME280;58032;49.820;6.274;2023-04-10T06:57:32;97977.03;;;5.66;100.00
70506;BME280;58032;49.820;6.274;2023-04-10T06:59:59;97980.03;;;5.44;100.00
70506;BME280;58032;49.820;6.274;2023-04-10T07:02:26;97979.56;;;5.88;100.00
70506;BME280;58032;49.820;6.274;2023-04-10T07:04:53;97968.59;;;6.35;100.00
70506;BME280;58032;49.820;6.274;2023-04-10T07:07:20;97972.88;;;6.43;100.00
70506;BME280;58032;49.820;6.274;2023-04-10T07:09:47;97980.41;;;6.74;100.00
70506;BME280;58032;49.820;6.274;2023-04-10T07:12:14;97978.59;;;6.60;100.00
70506;BME280;58032;49.820;6.274;2023-04-10T07:14:41;97985.16;;;6.77;100.00
70506;BME280;58032;49.820;6.274;2023-04-10T07:17:08;97976.78;;;7.01;100.00
70506;BME280;58032;49.820;6.274;2023-04-10T07:19:35;97972.31;;;7.27;100.00
70506;BME280;58032;49.820;6.274;2023-04-10T07:22:03;97974.69;;;8.29;100.00
70506;BME280;58032;49.820;6.274;2023-04-10T07:24:30;97972.50;;;8.00;100.00
70506;BME280;58032;49.820;6.274;2023-04-10T07:26:58;97976.81;;;7.85;100.00
70506;BME280;58032;49.820;6.274;2023-04-10T07:29:26;97972.94;;;8.19;100.00
70506;BME280;58032;49.820;6.274;2023-04-10T07:31:53;97974.91;;;8.38;100.00
70506;BME280;58032;49.820;6.274;2023-04-10T07:34:19;97965.16;;;8.06;100.00
70506;BME280;58032;49.820;6.274;2023-04-10T07:36:46;97964.69;;;8.28;100.00
70506;BME280;58032;49.820;6.274;2023-04-10T07:39:14;97965.25;;;8.39;100.00
70506;BME280;58032;49.820;6.274;2023-04-10T07:41:45;97964.63;;;8.85;100.00
70506;BME280;58032;49.820;6.274;2023-04-10T07:44:17;97965.31;;;9.22;100.00
70506;BME280;58032;49.820;6.274;2023-04-10T07:46:51;97965.78;;;9.79;100.00
70506;BME280;58032;49.820;6.274;2023-04-10T07:49:25;97963.13;;;9.59;100.00
70506;BME280;58032;49.820;6.274;2023-04-10T07:51:52;97959.22;;;9.70;100.00
70506;BME280;58032;49.820;6.274;2023-04-10T07:54:19;97963.13;;;9.59;100.00
70506;BME280;58032;49.820;6.274;2023-04-10T07:56:46;97960.44;;;9.98;100.00
70506;BME280;58032;49.820;6.274;2023-04-10T07:59:13;97957.34;;;9.79;100.00
70506;BME280;58032;49.820;6.274;2023-04-10T08:01:40;97958.13;;;10.22;100.00
70506;BME280;58032;49.820;6.274;2023-04-10T08:04:07;97953.56;;;10.54;100.00
70506;BME280;58032;49.820;6.274;2023-04-10T08:06:34;97955.16;;;10.68;100.00
70506;BME280;58032;49.820;6.274;2023-04-10T08:09:02;97948.69;;;10.93;100.00
70506;BME280;58032;49.820;6.274;2023-04-10T08:11:33;97945.13;;;10.41;100.00
70506;BME280;58032;49.820;6.274;2023-04-10T08:14:02;97939.97;;;10.10;100.00
70506;BME280;58032;49.820;6.274;2023-04-10T08:16:32;97937.03;;;10.01;100.00
70506;BME280;58032;49.820;6.274;2023-04-10T08:19:00;97929.63;;;9.65;100.00
70506;BME280;58032;49.820;6.274;2023-04-10T08:21:28;97940.44;;;9.66;100.00
70506;BME280;58032;49.820;6.274;2023-04-10T08:23:58;97930.91;;;9.77;100.00
70506;BME280;58032;49.820;6.274;2023-04-10T08:26:26;97931.94;;;9.83;100.00
70506;BME280;58032;49.820;6.274;2023-04-10T08:28:55;97937.41;;;9.61;100.00
70506;BME280;58032;49.820;6.274;2023-04-10T08:31:24;97924.56;;;10.15;100.00
70506;BME280;58032;49.820;6.274;2023-04-10T08:33:52;97922.31;;;10.10;100.00
70506;BME280;58032;49.820;6.274;2023-04-10T08:36:19;97917.75;;;9.87;100.00
70506;BME280;58032;49.820;6.274;2023-04-10T08:38:46;97921.50;;;9.54;100.00
70506;BME280;58032;49.820;6.274;2023-04-10T08:41:17;97920.00;;;9.79;100.00
70506;BME280;58032;49.820;6.274;2023-04-10T08:43:49;97921.59;;;9.80;100.00
70506;BME280;58032;49.820;6.274;2023-04-10T08:46:16;97915.44;;;9.98;100.00
70506;BME280;58032;49.820;6.274;2023-04-10T08:49:01;97918.84;;;10.19;100.00
70506;BME280;58032;49.820;6.274;2023-04-10T08:51:38;97906.88;;;10.02;100.00
70506;BME280;58032;49.820;6.274;2023-04-10T08:54:12;97902.84;;;10.16;100.00
70506;BME280;58032;49.820;6.274;2023-04-10T08:56:50;97903.78;;;10.25;100.00
70506;BME280;58032;49.820;6.274;2023-04-10T08:59:19;97896.56;;;10.24;100.00
70506;BME280;58032;49.820;6.274;2023-04-10T09:01:47;97891.81;;;10.08;100.00
70506;BME280;58032;49.820;6.274;2023-04-10T09:04:14;97895.06;;;10.07;100.00
70506;BME280;58032;49.820;6.274;2023-04-10T09:06:43;97887.66;;;10.13;100.00
70506;BME280;58032;49.820;6.274;2023-04-10T09:09:12;97874.06;;;10.37;100.00
70506;BME280;58032;49.820;6.274;2023-04-10T09:12:02;97878.44;;;10.51;100.00
70506;BME280;58032;49.820;6.274;2023-04-10T09:14:32;97866.97;;;11.06;100.00
70506;BME280;58032;49.820;6.274;2023-04-10T09:19:37;97863.38;;;11.28;100.00
70506;BME280;58032;49.820;6.274;2023-04-10T09:22:04;97859.53;;;11.88;100.00
70506;BME280;58032;49.820;6.274;2023-04-10T09:24:34;97864.88;;;11.86;100.00
70506;BME280;58032;49.820;6.274;2023-04-10T09:27:03;97860.69;;;11.69;100.00
70506;BME280;58032;49.820;6.274;2023-04-10T09:29:44;97865.47;;;11.37;100.00
70506;BME280;58032;49.820;6.274;2023-04-10T09:32:42;97872.53;;;11.19;100.00
70506;BME280;58032;49.820;6.274;2023-04-10T09:35:13;97871.69;;;11.54;100.00
70506;BME280;58032;49.820;6.274;2023-04-10T09:37:43;97874.66;;;11.95;100.00
70506;BME280;58032;49.820;6.274;2023-04-10T09:40:24;97872.50;;;11.99;100.00
70506;BME280;58032;49.820;6.274;2023-04-10T09:42:51;97858.00;;;11.87;100.00
70506;BME280;58032;49.820;6.274;2023-04-10T09:45:19;97849.97;;;11.86;100.00
70506;BME280;58032;49.820;6.274;2023-04-10T09:48:00;97865.13;;;12.01;100.00
70506;BME280;58032;49.820;6.274;2023-04-10T09:50:35;97857.38;;;11.93;100.00
70506;BME280;58032;49.820;6.274;2023-04-10T09:53:04;97848.88;;;12.15;100.00
70506;BME280;58032;49.820;6.274;2023-04-10T09:55:33;97844.47;;;12.05;100.00
70506;BME280;58032;49.820;6.274;2023-04-10T09:58:03;97848.16;;;12.24;100.00
70506;BME280;58032;49.820;6.274;2023-04-10T10:03:08;97846.00;;;12.37;100.00
70506;BME280;58032;49.820;6.274;2023-04-10T10:05:41;97841.41;;;12.30;100.00
70506;BME280;58032;49.820;6.274;2023-04-10T10:08:09;97834.03;;;12.24;100.00
70506;BME280;58032;49.820;6.274;2023-04-10T10:10:57;97836.06;;;11.92;100.00
70506;BME280;58032;49.820;6.274;2023-04-10T10:13:46;97832.91;;;12.71;100.00
70506;BME280;58032;49.820;6.274;2023-04-10T10:16:36;97825.53;;;12.74;100.00
70506;BME280;58032;49.820;6.274;2023-04-10T10:19:12;97819.91;;;13.20;100.00
70506;BME280;58032;49.820;6.274;2023-04-10T10:21:46;97822.25;;;13.03;100.00
70506;BME280;58032;49.820;6.274;2023-04-10T10:24:14;97816.09;;;12.77;100.00
70506;BME280;58032;49.820;6.274;2023-04-10T10:26:42;97811.56;;;13.35;100.00
70506;BME280;58032;49.820;6.274;2023-04-10T10:29:09;97803.75;;;13.39;100.00
70506;BME280;58032;49.820;6.274;2023-04-10T10:31:37;97804.19;;;12.82;100.00
70506;BME280;58032;49.820;6.274;2023-04-10T10:34:04;97800.59;;;13.00;100.00
70506;BME280;58032;49.820;6.274;2023-04-10T10:36:37;97792.56;;;13.26;100.00
70506;BME280;58032;49.820;6.274;2023-04-10T10:42:08;97799.63;;;13.22;100.00
70506;BME280;58032;49.820;6.274;2023-04-10T10:44:45;97798.69;;;13.25;100.00
70506;BME280;58032;49.820;6.274;2023-04-10T10:47:17;97791.47;;;13.42;100.00
70506;BME280;58032;49.820;6.274;2023-04-10T10:49:56;97783.47;;;13.13;100.00
70506;BME280;58032;49.820;6.274;2023-04-10T10:52:37;97775.28;;;13.43;100.00
70506;BME280;58032;49.820;6.274;2023-04-10T10:58:10;97754.09;;;12.92;100.00
70506;BME280;58032;49.820;6.274;2023-04-10T11:05:52;97769.66;;;13.06;100.00
70506;BME280;58032;49.820;6.274;2023-04-10T11:11:23;97757.38;;;13.27;100.00
70506;BME280;58032;49.820;6.274;2023-04-10T11:16:40;97752.16;;;13.63;100.00
70506;BME280;58032;49.820;6.274;2023-04-10T11:19:10;97750.41;;;13.99;100.00
70506;BME280;58032;49.820;6.274;2023-04-10T11:22:06;97757.66;;;13.57;100.00
70506;BME280;58032;49.820;6.274;2023-04-10T11:25:10;97753.41;;;13.62;100.00
70506;BME280;58032;49.820;6.274;2023-04-10T11:27:38;97746.69;;;13.41;100.00
70506;BME280;58032;49.820;6.274;2023-04-10T11:30:30;97763.78;;;13.99;100.00
70506;BME280;58032;49.820;6.274;2023-04-10T11:32:57;97751.56;;;13.83;100.00
70506;BME280;58032;49.820;6.274;2023-04-10T11:35:26;97752.91;;;14.06;100.00
70506;BME280;58032;49.820;6.274;2023-04-10T11:38:08;97741.75;;;13.69;100.00
70506;BME280;58032;49.820;6.274;2023-04-10T11:40:35;97731.34;;;14.33;100.00
70506;BME280;58032;49.820;6.274;2023-04-10T11:43:13;97727.47;;;14.21;100.00
70506;BME280;58032;49.820;6.274;2023-04-10T11:45:40;97719.59;;;14.01;100.00
70506;BME280;58032;49.820;6.274;2023-04-10T11:48:07;97708.50;;;13.88;100.00
70506;BME280;58032;49.820;6.274;2023-04-10T11:50:34;97710.84;;;13.90;100.00
70506;BME280;58032;49.820;6.274;2023-04-10T11:53:16;97717.63;;;13.83;100.00
70506;BME280;58032;49.820;6.274;2023-04-10T11:55:43;97709.00;;;14.11;100.00
70506;BME280;58032;49.820;6.274;2023-04-10T11:58:26;97708.19;;;14.11;100.00
70506;BME280;58032;49.820;6.274;2023-04-10T12:01:02;97694.72;;;14.54;100.00
70506;BME280;58032;49.820;6.274;2023-04-10T12:03:36;97699.91;;;14.31;100.00
70506;BME280;58032;49.820;6.274;2023-04-10T12:06:09;97684.59;;;14.14;100.00
70506;BME280;58032;49.820;6.274;2023-04-10T12:08:39;97680.41;;;14.72;100.00
70506;BME280;58032;49.820;6.274;2023-04-10T12:11:07;97687.38;;;14.23;100.00
70506;BME280;58032;49.820;6.274;2023-04-10T12:13:35;97689.00;;;14.15;100.00
70506;BME280;58032;49.820;6.274;2023-04-10T12:16:06;97688.28;;;14.05;100.00
70506;BME280;58032;49.820;6.274;2023-04-10T12:18:34;97685.38;;;14.14;100.00
70506;BME280;58032;49.820;6.274;2023-04-10T12:21:03;97675.78;;;13.87;100.00
70506;BME280;58032;49.820;6.274;2023-04-10T12:23:30;97675.97;;;13.84;100.00
70506;BME280;58032;49.820;6.274;2023-04-10T12:26:11;97677.22;;;13.83;100.00
70506;BME280;58032;49.820;6.274;2023-04-10T12:28:39;97670.16;;;13.78;100.00
70506;BME280;58032;49.820;6.274;2023-04-10T12:31:07;97669.44;;;13.92;100.00
70506;BME280;58032;49.820;6.274;2023-04-10T12:33:34;97666.63;;;13.92;100.00
70506;BME280;58032;49.820;6.274;2023-04-10T12:36:02;97665.66;;;14.44;100.00
70506;BME280;58032;49.820;6.274;2023-04-10T12:41:03;97666.69;;;14.07;100.00
70506;BME280;58032;49.820;6.274;2023-04-10T12:43:37;97670.34;;;13.74;100.00
70506;BME280;58032;49.820;6.274;2023-04-10T12:46:07;97666.97;;;13.85;100.00
70506;BME280;58032;49.820;6.274;2023-04-10T12:48:46;97660.50;;;13.94;100.00
70506;BME280;58032;49.820;6.274;2023-04-10T12:51:13;97661.50;;;13.82;100.00
70506;BME280;58032;49.820;6.274;2023-04-10T12:53:42;97658.19;;;13.83;100.00
70506;BME280;58032;49.820;6.274;2023-04-10T12:56:11;97653.47;;;13.56;100.00
70506;BME280;58032;49.820;6.274;2023-04-10T12:58:39;97646.97;;;13.65;100.00
70506;BME280;58032;49.820;6.274;2023-04-10T13:01:08;97640.19;;;13.71;100.00
70506;BME280;58032;49.820;6.274;2023-04-10T13:03:36;97644.50;;;13.82;100.00
70506;BME280;58032;49.820;6.274;2023-04-10T13:06:07;97645.41;;;13.88;100.00
70506;BME280;58032;49.820;6.274;2023-04-10T13:08:35;97647.72;;;14.23;100.00
70506;BME280;58032;49.820;6.274;2023-04-10T13:11:02;97640.31;;;14.25;100.00
70506;BME280;58032;49.820;6.274;2023-04-10T13:13:29;97634.75;;;14.07;100.00
70506;BME280;58032;49.820;6.274;2023-04-10T13:15:58;97639.34;;;14.29;100.00
70506;BME280;58032;49.820;6.274;2023-04-10T13:18:25;97625.03;;;14.47;100.00
70506;BME280;58032;49.820;6.274;2023-04-10T13:20:52;97629.09;;;14.85;100.00
70506;BME280;58032;49.820;6.274;2023-04-10T13:23:19;97628.13;;;14.74;100.00
70506;BME280;58032;49.820;6.274;2023-04-10T13:25:46;97609.81;;;15.34;100.00
70506;BME280;58032;49.820;6.274;2023-04-10T13:28:13;97608.47;;;15.00;100.00
70506;BME280;58032;49.820;6.274;2023-04-10T13:30:41;97608.97;;;14.83;100.00
70506;BME280;58032;49.820;6.274;2023-04-10T13:33:08;97600.06;;;14.76;100.00
70506;BME280;58032;49.820;6.274;2023-04-10T13:35:35;97607.41;;;14.97;100.00
70506;BME280;58032;49.820;6.274;2023-04-10T13:38:02;97597.94;;;15.00;100.00
70506;BME280;58032;49.820;6.274;2023-04-10T13:40:30;97586.66;;;14.61;100.00
70506;BME280;58032;49.820;6.274;2023-04-10T13:42:57;97579.38;;;14.30;100.00
70506;BME280;58032;49.820;6.274;2023-04-10T13:45:24;97570.66;;;14.19;100.00
70506;BME280;58032;49.820;6.274;2023-04-10T13:47:51;97575.22;;;14.01;100.00
70506;BME280;58032;49.820;6.274;2023-04-10T13:50:18;97575.75;;;13.90;100.00
70506;BME280;58032;49.820;6.274;2023-04-10T13:52:45;97569.25;;;13.75;100.00
70506;BME280;58032;49.820;6.274;2023-04-10T13:55:12;97564.75;;;13.68;100.00